createdAt,value
2018-04-06T00:00:13.670Z,3.30
2018-04-06T00:02:41.010Z,3.30
2018-04-06T00:05:08.415Z,3.30
2018-04-06T00:07:35.740Z,3.30
2018-04-06T00:10:03.122Z,3.30
2018-04-06T00:12:30.429Z,3.30
2018-04-06T00:14:57.783Z,3.20
2018-04-06T00:17:25.131Z,3.20
2018-04-06T00:19:52.492Z,3.20
2018-04-06T00:22:19.913Z,3.20
2018-04-06T00:24:47.654Z,3.20
2018-04-06T00:27:15.005Z,3.20
2018-04-06T00:29:42.463Z,3.10
2018-04-06T00:32:09.822Z,3.10
2018-04-06T00:34:37.710Z,3.10
2018-04-06T00:37:05.456Z,3.10
2018-04-06T00:39:32.829Z,3.10
2018-04-06T00:42:00.692Z,3.00
2018-04-06T00:44:28.458Z,3.00
2018-04-06T00:46:56.247Z,3.00
2018-04-06T00:49:23.628Z,3.00
2018-04-06T00:51:51.052Z,3.00
2018-04-06T00:54:18.606Z,3.00
2018-04-06T00:56:45.941Z,3.00
2018-04-06T00:59:13.728Z,2.90
2018-04-06T01:01:41.107Z,3.00
2018-04-06T01:04:08.530Z,2.90
2018-04-06T01:06:35.903Z,2.90
2018-04-06T01:09:03.392Z,2.90
2018-04-06T01:11:30.775Z,2.90
2018-04-06T01:13:58.552Z,2.80
2018-04-06T01:16:25.952Z,2.80
2018-04-06T01:18:53.363Z,2.70
2018-04-06T01:21:20.725Z,2.70
2018-04-06T01:23:48.177Z,2.70
2018-04-06T01:26:15.514Z,2.70
2018-04-06T01:28:43.264Z,2.70
2018-04-06T01:31:10.654Z,2.70
2018-04-06T01:33:38.025Z,2.70
2018-04-06T01:36:05.410Z,2.70
2018-04-06T01:38:33.744Z,2.70
2018-04-06T01:41:01.149Z,2.60
2018-04-06T01:43:28.519Z,2.60
2018-04-06T01:45:56.288Z,2.60
2018-04-06T01:48:24.046Z,2.60
2018-04-06T01:50:51.890Z,2.60
2018-04-06T01:53:19.686Z,2.50
2018-04-06T01:55:47.114Z,2.50
2018-04-06T01:58:14.450Z,2.50
2018-04-06T02:00:42.859Z,2.40
2018-04-06T02:03:14.149Z,2.40
2018-04-06T02:05:41.495Z,2.40
2018-04-06T02:08:08.905Z,2.40
2018-04-06T02:10:36.664Z,2.40
2018-04-06T02:13:07.759Z,2.40
2018-04-06T02:15:35.128Z,2.40
2018-04-06T02:18:02.477Z,2.30
2018-04-06T02:20:29.904Z,2.30
2018-04-06T02:22:57.352Z,2.30
2018-04-06T02:25:24.727Z,2.30
2018-04-06T02:27:52.066Z,2.30
2018-04-06T02:30:19.436Z,2.30
2018-04-06T02:32:46.819Z,2.30
2018-04-06T02:35:14.256Z,2.30
2018-04-06T02:37:41.635Z,2.30
2018-04-06T02:40:09.065Z,2.20
2018-04-06T02:42:36.424Z,2.20
2018-04-06T02:45:03.823Z,2.20
2018-04-06T02:47:31.223Z,2.20
2018-04-06T02:49:59.583Z,2.20
2018-04-06T02:52:26.920Z,2.20
2018-04-06T02:54:54.298Z,2.20
2018-04-06T02:57:21.657Z,2.10
2018-04-06T02:59:49.196Z,2.10
2018-04-06T03:02:16.595Z,2.10
2018-04-06T03:04:43.979Z,2.10
2018-04-06T03:07:11.722Z,2.10
2018-04-06T03:09:39.089Z,2.00
2018-04-06T03:12:06.528Z,2.00
2018-04-06T03:14:33.888Z,2.00
2018-04-06T03:17:01.284Z,2.00
2018-04-06T03:19:28.723Z,2.00
2018-04-06T03:21:56.471Z,2.00
2018-04-06T03:24:23.889Z,1.90
2018-04-06T03:26:51.355Z,1.90
2018-04-06T03:29:18.844Z,1.90
2018-04-06T03:31:46.700Z,1.90
2018-04-06T03:34:14.060Z,1.90
2018-04-06T03:36:41.402Z,1.90
2018-04-06T03:39:08.762Z,1.90
2018-04-06T03:41:36.136Z,1.90
2018-04-06T03:44:04.414Z,1.80
2018-04-06T03:46:32.165Z,1.80
2018-04-06T03:48:59.932Z,1.80
2018-04-06T03:51:27.761Z,1.80
2018-04-06T03:53:55.119Z,1.80
2018-04-06T03:56:22.501Z,1.80
2018-04-06T03:58:50.445Z,1.70
2018-04-06T04:01:17.831Z,1.70
2018-04-06T04:03:45.244Z,1.70
2018-04-06T04:06:12.592Z,1.70
2018-04-06T04:08:39.936Z,1.70
2018-04-06T04:11:07.277Z,1.70
2018-04-06T04:13:34.780Z,1.70
2018-04-06T04:16:02.208Z,1.70
2018-04-06T04:18:29.568Z,1.70
2018-04-06T04:20:56.961Z,1.70
2018-04-06T04:23:28.084Z,1.70
2018-04-06T04:25:55.878Z,1.70
2018-04-06T04:28:23.631Z,1.70
2018-04-06T04:30:51.364Z,1.70
2018-04-06T04:33:18.710Z,1.70
2018-04-06T04:35:46.067Z,1.60
2018-04-06T04:38:13.485Z,1.60
2018-04-06T04:40:41.772Z,1.60
2018-04-06T04:43:09.138Z,1.60
2018-04-06T04:45:36.578Z,1.60
2018-04-06T04:48:03.972Z,1.60
2018-04-06T04:50:31.415Z,1.60
2018-04-06T04:52:58.783Z,1.60
2018-04-06T04:55:26.547Z,1.60
2018-04-06T04:57:54.018Z,1.60
2018-04-06T05:00:21.794Z,1.50
2018-04-06T05:02:49.559Z,1.60
2018-04-06T05:05:16.974Z,1.50
2018-04-06T05:07:44.314Z,1.60
2018-04-06T05:10:11.774Z,1.50
2018-04-06T05:12:39.160Z,1.50
2018-04-06T05:15:06.977Z,1.60
2018-04-06T05:17:34.409Z,1.60
2018-04-06T05:20:02.326Z,1.60
2018-04-06T05:22:29.748Z,1.60
2018-04-06T05:24:57.203Z,1.70
2018-04-06T05:27:24.589Z,1.90
2018-04-06T05:29:52.023Z,2.00
2018-04-06T05:32:19.396Z,2.20
2018-04-06T05:34:46.860Z,2.30
2018-04-06T05:37:14.296Z,2.30
2018-04-06T05:39:41.666Z,2.30
2018-04-06T05:42:09.039Z,2.30
2018-04-06T05:44:36.400Z,2.30
2018-04-06T05:47:04.614Z,2.40
2018-04-06T05:49:32.217Z,2.50
2018-04-06T05:51:59.959Z,2.50
2018-04-06T05:54:27.330Z,2.60
2018-04-06T05:56:54.930Z,2.60
2018-04-06T05:59:22.369Z,2.70
2018-04-06T06:01:50.123Z,2.80
2018-04-06T06:04:17.895Z,2.90
2018-04-06T06:06:45.325Z,3.00
2018-04-06T06:09:12.654Z,3.10
2018-04-06T06:11:40.021Z,3.30
2018-04-06T06:14:07.427Z,3.40
2018-04-06T06:16:34.855Z,3.50
2018-04-06T06:19:02.641Z,3.70
2018-04-06T06:21:30.027Z,3.90
2018-04-06T06:23:57.371Z,4.20
2018-04-06T06:26:24.849Z,4.40
2018-04-06T06:28:52.248Z,4.70
2018-04-06T06:31:19.656Z,4.80
2018-04-06T06:33:47.052Z,5.00
2018-04-06T06:36:14.831Z,5.30
2018-04-06T06:38:42.237Z,5.60
2018-04-06T06:41:09.620Z,5.90
2018-04-06T06:43:37.377Z,6.20
2018-04-06T06:46:04.752Z,6.30
2018-04-06T06:48:33.535Z,6.40
2018-04-06T06:51:01.456Z,6.60
2018-04-06T06:53:28.786Z,6.90
2018-04-06T06:55:56.147Z,7.30
2018-04-06T06:58:23.502Z,7.60
2018-04-06T07:00:51.248Z,7.70
2018-04-06T07:03:18.639Z,7.80
2018-04-06T07:05:46.052Z,8.10
2018-04-06T07:08:13.451Z,8.40
2018-04-06T07:10:40.799Z,8.80
2018-04-06T07:13:08.164Z,8.90
2018-04-06T07:15:35.908Z,9.10
2018-04-06T07:18:03.335Z,9.60
2018-04-06T07:20:30.690Z,9.90
2018-04-06T07:22:58.157Z,10.00
2018-04-06T07:25:25.599Z,10.40
2018-04-06T07:27:52.992Z,10.90
2018-04-06T07:30:20.408Z,11.10
2018-04-06T07:32:47.795Z,11.20
2018-04-06T07:35:15.176Z,11.20
2018-04-06T07:37:43.001Z,11.70
2018-04-06T07:40:10.392Z,12.10
2018-04-06T07:42:37.738Z,12.30
2018-04-06T07:45:05.062Z,12.70
2018-04-06T07:47:32.544Z,13.40
2018-04-06T07:50:00.296Z,13.70
2018-04-06T07:52:27.648Z,13.90
2018-04-06T07:54:55.029Z,13.90
2018-04-06T07:57:22.437Z,14.00
2018-04-06T07:59:49.787Z,14.50
2018-04-06T08:02:17.127Z,14.70
2018-04-06T08:04:44.667Z,14.70
2018-04-06T08:07:12.447Z,14.40
2018-04-06T08:09:39.887Z,14.30
2018-04-06T08:12:07.247Z,14.40
2018-04-06T08:14:34.675Z,14.80
2018-04-06T08:17:02.052Z,14.50
2018-04-06T08:19:29.423Z,14.80
2018-04-06T08:21:56.804Z,15.40
2018-04-06T08:24:24.172Z,16.10
2018-04-06T08:26:51.598Z,16.00
2018-04-06T08:29:18.933Z,15.80
2018-04-06T08:31:46.353Z,16.40
2018-04-06T08:34:13.714Z,17.10
2018-04-06T08:36:41.627Z,17.10
2018-04-06T08:39:09.283Z,17.30
2018-04-06T08:41:36.653Z,17.50
2018-04-06T08:44:04.380Z,18.70
2018-04-06T08:46:31.720Z,18.90
2018-04-06T08:48:59.483Z,17.80
2018-04-06T08:51:27.266Z,17.70
2018-04-06T08:53:54.624Z,17.20
2018-04-06T08:59:12.770Z,16.70
2018-04-06T09:01:41.103Z,17.80
2018-04-06T09:04:08.427Z,19.20
2018-04-06T09:06:36.179Z,19.90
2018-04-06T09:09:03.539Z,19.30
2018-04-06T09:11:30.942Z,18.40
2018-04-06T09:13:58.676Z,18.20
2018-04-06T09:16:26.123Z,18.20
2018-04-06T09:18:53.539Z,19.10
2018-04-06T09:21:20.985Z,20.10
2018-04-06T09:23:48.719Z,20.20
2018-04-06T09:26:16.197Z,19.80
2018-04-06T09:28:43.916Z,20.60
2018-04-06T09:31:11.323Z,21.40
2018-04-06T09:33:39.107Z,20.50
2018-04-06T09:36:06.476Z,20.10
2018-04-06T09:38:33.835Z,20.10
2018-04-06T09:41:02.225Z,19.90
2018-04-06T09:43:33.186Z,19.40
2018-04-06T09:46:00.527Z,19.00
2018-04-06T09:48:27.879Z,19.10
2018-04-06T09:50:55.283Z,21.10
2018-04-06T09:53:22.628Z,22.10
2018-04-06T09:55:50.362Z,22.10
2018-04-06T09:58:17.710Z,21.90
2018-04-06T10:00:45.092Z,21.20
2018-04-06T10:03:12.831Z,20.70
2018-04-06T10:05:40.179Z,21.00
2018-04-06T10:08:08.019Z,22.30
2018-04-06T10:10:35.410Z,22.60
2018-04-06T10:13:02.808Z,22.20
2018-04-06T10:15:30.170Z,21.70
2018-04-06T10:17:57.544Z,21.20
2018-04-06T10:20:24.971Z,21.20
2018-04-06T10:22:52.718Z,21.00
2018-04-06T10:25:20.425Z,21.20
2018-04-06T10:27:47.738Z,21.00
2018-04-06T10:30:15.051Z,20.90
2018-04-06T10:32:42.443Z,21.10
2018-04-06T10:35:09.815Z,20.70
2018-04-06T10:37:37.183Z,21.10
2018-04-06T10:40:04.594Z,21.50
2018-04-06T10:42:32.390Z,21.50
2018-04-06T10:44:59.802Z,21.60
2018-04-06T10:47:27.523Z,21.70
2018-04-06T10:49:54.871Z,21.50
2018-04-06T10:52:22.215Z,21.50
2018-04-06T10:54:49.623Z,21.30
2018-04-06T11:00:07.359Z,21.60
2018-04-06T11:02:34.851Z,21.90
2018-04-06T11:05:02.200Z,22.10
2018-04-06T11:07:29.579Z,21.50
2018-04-06T11:09:56.948Z,21.40
2018-04-06T11:12:24.338Z,21.50
2018-04-06T11:14:51.723Z,21.50
2018-04-06T11:17:19.160Z,21.30
2018-04-06T11:19:46.947Z,21.20
2018-04-06T11:22:14.372Z,21.30
2018-04-06T11:24:42.108Z,21.50
2018-04-06T11:27:09.458Z,21.50
2018-04-06T11:29:36.785Z,21.50
2018-04-06T11:32:04.191Z,21.50
2018-04-06T11:34:31.488Z,21.40
2018-04-06T11:36:58.918Z,21.40
2018-04-06T11:39:26.250Z,21.50
2018-04-06T11:41:54.012Z,21.80
2018-04-06T11:44:21.440Z,21.90
2018-04-06T11:46:48.839Z,21.90
2018-04-06T11:49:16.599Z,21.60
2018-04-06T11:51:44.324Z,21.50
2018-04-06T11:54:11.734Z,21.50
2018-04-06T11:56:39.472Z,21.50
2018-04-06T11:59:06.839Z,21.60
2018-04-06T12:01:34.267Z,21.60
2018-04-06T12:04:01.623Z,21.70
2018-04-06T12:06:29.004Z,21.80
2018-04-06T12:08:56.360Z,21.70
2018-04-06T12:11:23.715Z,21.50
2018-04-06T12:13:51.081Z,21.30
2018-04-06T12:16:18.514Z,21.20
2018-04-06T12:18:46.275Z,21.50
2018-04-06T12:21:14.096Z,21.70
2018-04-06T12:23:41.486Z,21.90
2018-04-06T12:26:09.223Z,22.00
2018-04-06T12:28:37.085Z,22.10
2018-04-06T12:31:04.498Z,22.20
2018-04-06T12:33:31.873Z,22.00
2018-04-06T12:35:59.482Z,21.80
2018-04-06T12:38:27.300Z,21.50
2018-04-06T12:40:54.676Z,21.30
2018-04-06T12:43:22.481Z,21.70
2018-04-06T12:45:50.249Z,22.10
2018-04-06T12:48:17.672Z,22.50
2018-04-06T12:50:45.050Z,22.70
2018-04-06T12:53:12.797Z,22.30
2018-04-06T12:55:40.570Z,22.20
2018-04-06T12:58:08.302Z,22.00
2018-04-06T13:00:35.638Z,22.10
2018-04-06T13:03:03.065Z,21.40
2018-04-06T13:05:30.834Z,22.10
2018-04-06T13:07:58.254Z,22.30
2018-04-06T13:10:26.060Z,22.10
2018-04-06T13:12:53.382Z,22.50
2018-04-06T13:15:21.136Z,22.70
2018-04-06T13:17:48.906Z,22.50
2018-04-06T13:20:16.650Z,22.30
2018-04-06T13:22:43.999Z,22.80
2018-04-06T13:25:11.708Z,22.90
2018-04-06T13:27:39.059Z,22.70
2018-04-06T13:30:07.067Z,22.70
2018-04-06T13:32:34.419Z,22.40
2018-04-06T13:35:01.839Z,22.70
2018-04-06T13:37:29.197Z,22.70
2018-04-06T13:39:56.535Z,21.60
2018-04-06T13:42:23.969Z,22.10
2018-04-06T13:44:51.746Z,21.20
2018-04-06T13:47:19.123Z,21.10
2018-04-06T13:49:46.502Z,21.80
2018-04-06T13:52:13.858Z,22.00
2018-04-06T13:54:41.298Z,22.50
2018-04-06T13:57:08.626Z,22.30
2018-04-06T13:59:36.021Z,22.40
2018-04-06T14:02:03.349Z,22.90
2018-04-06T14:04:30.713Z,22.60
2018-04-06T14:06:58.081Z,22.90
2018-04-06T14:09:25.466Z,22.80
2018-04-06T14:11:53.252Z,22.30
2018-04-06T14:14:20.612Z,21.90
2018-04-06T14:16:48.002Z,22.80
2018-04-06T14:19:15.430Z,22.80
2018-04-06T14:21:42.804Z,22.90
2018-04-06T14:24:10.171Z,21.90
2018-04-06T14:26:37.542Z,21.40
2018-04-06T14:29:04.858Z,20.40
2018-04-06T14:31:32.177Z,21.90
2018-04-06T14:33:59.553Z,21.80
2018-04-06T14:36:26.893Z,22.60
2018-04-06T14:38:54.249Z,23.00
2018-04-06T14:41:21.564Z,22.70
2018-04-06T14:43:48.991Z,23.00
2018-04-06T14:46:16.310Z,23.50
2018-04-06T14:48:43.689Z,21.80
2018-04-06T14:51:11.107Z,22.70
2018-04-06T14:53:38.962Z,23.30
2018-04-06T14:56:06.743Z,23.60
2018-04-06T14:58:34.101Z,23.90
2018-04-06T15:01:01.516Z,23.80
2018-04-06T15:03:28.861Z,22.80
2018-04-06T15:05:56.203Z,22.40
2018-04-06T15:08:23.606Z,22.50
2018-04-06T15:10:51.334Z,21.70
2018-04-06T15:13:18.787Z,21.30
2018-04-06T15:15:46.177Z,20.30
2018-04-06T15:18:13.925Z,20.60
2018-04-06T15:20:41.320Z,20.90
2018-04-06T15:23:08.661Z,21.60
2018-04-06T15:25:35.986Z,20.80
2018-04-06T15:28:03.744Z,21.20
2018-04-06T15:30:32.545Z,20.50
2018-04-06T15:33:00.311Z,20.30
2018-04-06T15:35:27.775Z,20.50
2018-04-06T15:37:55.171Z,20.50
2018-04-06T15:40:22.531Z,20.40
2018-04-06T15:42:49.891Z,20.60
2018-04-06T15:45:17.242Z,20.30
2018-04-06T15:47:46.291Z,20.60
2018-04-06T15:50:13.655Z,20.40
2018-04-06T15:52:40.982Z,19.90
2018-04-06T15:55:08.724Z,20.40
2018-04-06T15:57:36.088Z,20.70
2018-04-06T16:00:03.906Z,20.30
2018-04-06T16:02:31.238Z,20.70
2018-04-06T16:04:58.591Z,20.20
2018-04-06T16:07:25.943Z,19.60
2018-04-06T16:09:53.330Z,19.70
2018-04-06T16:12:20.731Z,19.20
2018-04-06T16:14:48.471Z,18.60
2018-04-06T16:17:17.621Z,18.60
2018-04-06T16:19:45.011Z,19.20
2018-04-06T16:22:14.231Z,19.30
2018-04-06T16:24:41.654Z,18.50
2018-04-06T16:27:14.511Z,18.90
2018-04-06T16:29:48.605Z,19.50
2018-04-06T16:32:17.854Z,19.70
2018-04-06T16:34:49.403Z,20.00
2018-04-06T16:37:22.756Z,19.40
2018-04-06T16:39:52.724Z,19.30
2018-04-06T16:42:22.366Z,19.10
2018-04-06T16:44:51.689Z,19.10
2018-04-06T16:47:23.880Z,19.50
2018-04-06T16:49:53.118Z,19.10
2018-04-06T16:52:20.531Z,18.90
2018-04-06T16:54:47.888Z,19.20
2018-04-06T16:57:15.264Z,18.90
2018-04-06T16:59:42.923Z,18.60
2018-04-06T17:02:10.292Z,18.50
2018-04-06T17:04:37.699Z,18.80
2018-04-06T17:07:07.567Z,19.30
2018-04-06T17:09:39.089Z,19.10
2018-04-06T17:12:06.468Z,19.00
2018-04-06T17:14:33.867Z,18.80
2018-04-06T17:17:01.671Z,18.80
2018-04-06T17:19:29.214Z,18.80
2018-04-06T17:21:56.585Z,18.60
2018-04-06T17:24:24.137Z,18.30
2018-04-06T17:26:51.482Z,18.00
2018-04-06T17:29:18.890Z,17.20
2018-04-06T17:31:46.680Z,17.30
2018-04-06T17:34:14.033Z,17.60
2018-04-06T17:36:41.411Z,17.80
2018-04-06T17:39:08.863Z,17.40
2018-04-06T17:41:36.191Z,17.40
2018-04-06T17:44:13.958Z,17.40
2018-04-06T17:46:41.316Z,17.20
2018-04-06T17:49:08.687Z,16.80
2018-04-06T17:51:39.188Z,16.80
2018-04-06T17:54:07.154Z,16.70
2018-04-06T17:56:34.571Z,16.80
2018-04-06T17:59:02.069Z,16.70
2018-04-06T18:01:29.747Z,16.60
2018-04-06T18:03:57.122Z,16.40
2018-04-06T18:06:27.986Z,16.20
2018-04-06T18:08:55.356Z,15.90
2018-04-06T18:11:23.165Z,15.40
2018-04-06T18:13:50.560Z,15.40
2018-04-06T18:16:19.857Z,15.20
2018-04-06T18:18:49.592Z,15.20
2018-04-06T18:21:17.035Z,15.20
2018-04-06T18:23:44.439Z,15.20
2018-04-06T18:26:12.235Z,15.00
2018-04-06T18:28:39.640Z,14.90
2018-04-06T18:31:07.994Z,14.90
2018-04-06T18:33:35.437Z,14.90
2018-04-06T18:36:02.836Z,14.80
2018-04-06T18:38:30.681Z,14.50
2018-04-06T18:40:58.079Z,14.30
2018-04-06T18:43:27.450Z,14.30
2018-04-06T18:45:54.798Z,14.40
2018-04-06T18:48:23.143Z,14.40
2018-04-06T18:50:50.532Z,14.30
2018-04-06T18:53:18.875Z,14.30
2018-04-06T18:55:46.287Z,14.30
2018-04-06T18:58:13.615Z,13.90
2018-04-06T19:00:40.966Z,13.80
2018-04-06T19:03:08.388Z,13.50
2018-04-06T19:05:35.828Z,13.20
2018-04-06T19:08:03.556Z,13.00
2018-04-06T19:10:31.005Z,13.00
2018-04-06T19:12:58.419Z,13.20
2018-04-06T19:15:25.765Z,12.70
2018-04-06T19:17:53.117Z,12.80
2018-04-06T19:20:20.554Z,12.70
2018-04-06T19:22:48.311Z,12.40
2018-04-06T19:25:16.694Z,12.20
2018-04-06T19:27:44.427Z,12.10
2018-04-06T19:30:12.830Z,12.00
2018-04-06T19:32:40.352Z,11.90
2018-04-06T19:35:07.744Z,11.90
2018-04-06T19:37:35.197Z,11.90
2018-04-06T19:40:02.655Z,11.90
2018-04-06T19:42:30.132Z,11.50
2018-04-06T19:44:57.627Z,11.40
2018-04-06T19:47:25.092Z,11.10
2018-04-06T19:49:52.528Z,11.30
2018-04-06T19:52:19.925Z,11.40
2018-04-06T19:54:47.610Z,11.20
2018-04-06T19:57:15.414Z,11.40
2018-04-06T19:59:43.131Z,11.00
2018-04-06T20:02:11.144Z,11.20
2018-04-06T20:04:38.684Z,11.00
2018-04-06T20:07:06.256Z,10.90
2018-04-06T20:09:33.883Z,10.70
2018-04-06T20:12:01.846Z,10.60
2018-04-06T20:14:29.449Z,10.70
2018-04-06T20:16:56.919Z,10.50
2018-04-06T20:19:24.380Z,10.60
2018-04-06T20:21:52.929Z,10.50
2018-04-06T20:24:20.876Z,10.30
2018-04-06T20:26:48.690Z,10.30
2018-04-06T20:29:16.729Z,10.50
2018-04-06T20:31:44.772Z,10.50
2018-04-06T20:34:13.562Z,10.40
2018-04-06T20:36:41.349Z,10.50
2018-04-06T20:39:08.737Z,10.50
2018-04-06T20:41:36.124Z,10.30
2018-04-06T20:44:03.874Z,10.40
2018-04-06T20:46:33.218Z,10.40
2018-04-06T20:49:00.583Z,10.40
2018-04-06T20:51:28.384Z,10.20
2018-04-06T20:53:55.762Z,10.10
2018-04-06T20:56:23.095Z,9.90
2018-04-06T20:58:50.540Z,9.70
2018-04-06T21:01:17.883Z,9.70
2018-04-06T21:03:45.354Z,9.70
2018-04-06T21:06:12.737Z,9.70
2018-04-06T21:08:40.471Z,9.50
2018-04-06T21:11:07.811Z,9.50
2018-04-06T21:13:35.178Z,9.30
2018-04-06T21:16:02.555Z,9.50
2018-04-06T21:18:29.963Z,9.40
2018-04-06T21:20:57.311Z,9.40
2018-04-06T21:23:24.687Z,9.60
2018-04-06T21:25:52.463Z,9.50
2018-04-06T21:28:19.956Z,9.40
2018-04-06T21:30:47.314Z,9.30
2018-04-06T21:33:14.658Z,9.10
2018-04-06T21:35:43.004Z,9.30
2018-04-06T21:38:10.376Z,9.40
2018-04-06T21:40:39.748Z,9.50
2018-04-06T21:43:07.105Z,9.70
2018-04-06T21:45:34.542Z,9.60
2018-04-06T21:48:01.914Z,9.80
2018-04-06T21:50:29.224Z,9.70
2018-04-06T21:52:56.688Z,9.60
2018-04-06T21:55:24.079Z,9.60
2018-04-06T21:57:51.477Z,9.70
2018-04-06T22:00:18.802Z,9.60
2018-04-06T22:02:46.166Z,9.50
2018-04-06T22:05:13.934Z,9.40
2018-04-06T22:07:41.751Z,9.20
2018-04-06T22:10:09.146Z,9.10
2018-04-06T22:12:36.892Z,9.00
2018-04-06T22:15:04.229Z,9.00
2018-04-06T22:17:31.655Z,9.20
2018-04-06T22:19:58.980Z,9.10
2018-04-06T22:22:26.722Z,9.10
2018-04-06T22:24:54.107Z,9.10
2018-04-06T22:27:21.417Z,9.00
2018-04-06T22:29:48.830Z,8.90
2018-04-06T22:32:16.170Z,9.00
2018-04-06T22:34:43.591Z,8.90
2018-04-06T22:37:10.949Z,8.80
2018-04-06T22:39:38.293Z,8.80
2018-04-06T22:42:05.683Z,8.80
2018-04-06T22:44:33.050Z,8.80
2018-04-06T22:47:00.447Z,8.80
2018-04-06T22:49:27.818Z,8.70
2018-04-06T22:51:55.192Z,8.30
2018-04-06T22:54:22.966Z,8.50
2018-04-06T22:56:50.320Z,8.50
2018-04-06T22:59:17.679Z,8.30
2018-04-06T23:01:45.071Z,8.30
2018-04-06T23:04:12.487Z,8.30
2018-04-06T23:06:39.887Z,8.40
2018-04-06T23:09:09.665Z,8.30
2018-04-06T23:11:37.012Z,8.40
2018-04-06T23:14:04.377Z,8.30
2018-04-06T23:16:31.722Z,8.40
2018-04-06T23:18:59.099Z,8.30
2018-04-06T23:21:26.518Z,8.30
2018-04-06T23:23:53.821Z,8.20
2018-04-06T23:26:21.142Z,8.20
2018-04-06T23:28:48.478Z,8.10
2018-04-06T23:31:15.808Z,8.20
2018-04-06T23:33:43.153Z,8.20
2018-04-06T23:36:10.465Z,8.00
2018-04-06T23:38:37.753Z,8.10
2018-04-06T23:41:05.061Z,7.90
2018-04-06T23:43:32.394Z,8.00
2018-04-06T23:46:00.097Z,8.20
2018-04-06T23:48:27.386Z,8.20
2018-04-06T23:50:55.096Z,8.20
2018-04-06T23:53:24.335Z,8.30
2018-04-06T23:55:52.067Z,8.40
2018-04-06T23:58:19.403Z,7.90
